Terminal Aerodrome Forecast
Issued by NWS

Home | Current Version | Previous Version | Graphics & Text | Print | Product List | Glossary On
Versions: 1 2 3 4 5 6 7 8 9 10 11 12 13 14 15 16 17 18 19
000
FTUS43 KABR 201700
TAFPIR
TAF
KPIR 201737Z 2018/2118 VRB06KT P6SM OVC015
     FM202100 13006KT P6SM OVC010
     FM210300 15006KT 1SM BR OVC008
     FM210700 16006KT 3/4SM BR OVC003=

USA.gov is the U.S. government's official web portal to all federal, state and local government web resources and services.